sensor_id;sensor_type;location;lat;lon;timestamp;temperature;humidity
8910;DHT22;4490;49.072;8.804;2023-02-28T00:00:09;-0.70;72.20
8910;DHT22;4490;49.072;8.804;2023-02-28T00:02:42;-0.70;72.30
8910;DHT22;4490;49.072;8.804;2023-02-28T00:05:10;-0.80;72.30
8910;DHT22;4490;49.072;8.804;2023-02-28T00:07:36;-0.80;72.30
8910;DHT22;4490;49.072;8.804;2023-02-28T00:10:04;-0.80;72.70
8910;DHT22;4490;49.072;8.804;2023-02-28T00:12:31;-0.80;72.60
8910;DHT22;4490;49.072;8.804;2023-02-28T00:14:57;-0.90;72.50
8910;DHT22;4490;49.072;8.804;2023-02-28T00:17:23;-0.90;72.60
8910;DHT22;4490;49.072;8.804;2023-02-28T00:19:49;-0.90;72.60
8910;DHT22;4490;49.072;8.804;2023-02-28T00:22:17;-0.90;72.90
8910;DHT22;4490;49.072;8.804;2023-02-28T00:24:43;-0.90;72.90
8910;DHT22;4490;49.072;8.804;2023-02-28T00:27:08;-1.00;72.90
8910;DHT22;4490;49.072;8.804;2023-02-28T00:29:34;-1.00;73.00
8910;DHT22;4490;49.072;8.804;2023-02-28T00:32:00;-1.00;73.00
8910;DHT22;4490;49.072;8.804;2023-02-28T00:34:26;-1.00;73.20
8910;DHT22;4490;49.072;8.804;2023-02-28T00:36:51;-1.10;73.40
8910;DHT22;4490;49.072;8.804;2023-02-28T00:39:17;-1.10;73.30
8910;DHT22;4490;49.072;8.804;2023-02-28T00:41:43;-1.10;73.50
8910;DHT22;4490;49.072;8.804;2023-02-28T00:44:08;-1.10;73.60
8910;DHT22;4490;49.072;8.804;2023-02-28T00:46:34;-1.10;73.70
8910;DHT22;4490;49.072;8.804;2023-02-28T00:49:00;-1.10;73.50
8910;DHT22;4490;49.072;8.804;2023-02-28T00:51:26;-1.10;73.80
8910;DHT22;4490;49.072;8.804;2023-02-28T00:53:51;-1.10;73.70
8910;DHT22;4490;49.072;8.804;2023-02-28T00:56:17;-1.10;73.80
8910;DHT22;4490;49.072;8.804;2023-02-28T00:58:43;-1.10;73.80
8910;DHT22;4490;49.072;8.804;2023-02-28T01:01:08;-1.10;74.00
8910;DHT22;4490;49.072;8.804;2023-02-28T01:03:34;-1.10;74.10
8910;DHT22;4490;49.072;8.804;2023-02-28T01:06:00;-1.10;74.00
8910;DHT22;4490;49.072;8.804;2023-02-28T01:08:25;-1.10;74.20
8910;DHT22;4490;49.072;8.804;2023-02-28T01:10:52;-1.10;74.20
8910;DHT22;4490;49.072;8.804;2023-02-28T01:13:18;-1.10;74.20
8910;DHT22;4490;49.072;8.804;2023-02-28T01:15:55;-1.10;74.30
8910;DHT22;4490;49.072;8.804;2023-02-28T01:18:21;-1.10;74.30
8910;DHT22;4490;49.072;8.804;2023-02-28T01:20:48;-1.20;74.20
8910;DHT22;4490;49.072;8.804;2023-02-28T01:23:14;-1.20;74.30
8910;DHT22;4490;49.072;8.804;2023-02-28T01:25:40;-1.20;74.40
8910;DHT22;4490;49.072;8.804;2023-02-28T01:28:06;-1.20;74.50
8910;DHT22;4490;49.072;8.804;2023-02-28T01:30:32;-1.30;74.50
8910;DHT22;4490;49.072;8.804;2023-02-28T01:32:58;-1.30;75.30
8910;DHT22;4490;49.072;8.804;2023-02-28T01:35:23;-1.30;74.60
8910;DHT22;4490;49.072;8.804;2023-02-28T01:37:49;-1.30;74.60
8910;DHT22;4490;49.072;8.804;2023-02-28T01:40:15;-1.30;74.80
8910;DHT22;4490;49.072;8.804;2023-02-28T01:42:40;-1.30;74.80
8910;DHT22;4490;49.072;8.804;2023-02-28T01:45:29;-1.40;74.80
8910;DHT22;4490;49.072;8.804;2023-02-28T01:48:00;-1.40;75.20
8910;DHT22;4490;49.072;8.804;2023-02-28T01:50:31;-1.40;75.00
8910;DHT22;4490;49.072;8.804;2023-02-28T01:53:01;-1.40;75.10
8910;DHT22;4490;49.072;8.804;2023-02-28T01:55:28;-1.40;75.20
8910;DHT22;4490;49.072;8.804;2023-02-28T01:57:57;-1.50;75.10
8910;DHT22;4490;49.072;8.804;2023-02-28T02:00:25;-1.50;75.20
8910;DHT22;4490;49.072;8.804;2023-02-28T02:02:57;-1.60;75.30
8910;DHT22;4490;49.072;8.804;2023-02-28T02:05:29;-1.60;75.50
8910;DHT22;4490;49.072;8.804;2023-02-28T02:08:04;-1.60;75.50
8910;DHT22;4490;49.072;8.804;2023-02-28T02:16:45;-1.60;75.80
8910;DHT22;4490;49.072;8.804;2023-02-28T02:22:38;-1.70;75.80
8910;DHT22;4490;49.072;8.804;2023-02-28T02:34:07;-1.70;76.10
8910;DHT22;4490;49.072;8.804;2023-02-28T02:40:04;-1.70;76.10
8910;DHT22;4490;49.072;8.804;2023-02-28T02:45:34;-1.70;76.20
8910;DHT22;4490;49.072;8.804;2023-02-28T02:48:05;-1.70;76.10
8910;DHT22;4490;49.072;8.804;2023-02-28T02:50:49;-1.70;76.20
8910;DHT22;4490;49.072;8.804;2023-02-28T02:53:18;-1.70;76.30
8910;DHT22;4490;49.072;8.804;2023-02-28T02:55:48;-1.70;76.30
8910;DHT22;4490;49.072;8.804;2023-02-28T02:58:19;-1.70;76.40
8910;DHT22;4490;49.072;8.804;2023-02-28T03:00:51;-1.70;76.50
8910;DHT22;4490;49.072;8.804;2023-02-28T03:03:19;-1.70;76.60
8910;DHT22;4490;49.072;8.804;2023-02-28T03:05:58;-1.70;76.70
8910;DHT22;4490;49.072;8.804;2023-02-28T03:08:24;-1.70;76.70
8910;DHT22;4490;49.072;8.804;2023-02-28T03:10:52;-1.70;76.90
8910;DHT22;4490;49.072;8.804;2023-02-28T03:15:58;-1.60;77.30
8910;DHT22;4490;49.072;8.804;2023-02-28T03:24:08;-1.60;77.90
8910;DHT22;4490;49.072;8.804;2023-02-28T03:26:41;-1.60;77.30
8910;DHT22;4490;49.072;8.804;2023-02-28T03:29:28;-1.60;77.30
8910;DHT22;4490;49.072;8.804;2023-02-28T03:32:02;-1.50;77.60
8910;DHT22;4490;49.072;8.804;2023-02-28T03:34:33;-1.50;77.60
8910;DHT22;4490;49.072;8.804;2023-02-28T03:37:04;-1.50;77.70
8910;DHT22;4490;49.072;8.804;2023-02-28T03:39:42;-1.40;78.10
8910;DHT22;4490;49.072;8.804;2023-02-28T03:42:11;-1.40;78.10
8910;DHT22;4490;49.072;8.804;2023-02-28T03:44:48;-1.30;78.20
8910;DHT22;4490;49.072;8.804;2023-02-28T03:47:21;-1.30;78.30
8910;DHT22;4490;49.072;8.804;2023-02-28T03:49:59;-1.30;78.30
8910;DHT22;4490;49.072;8.804;2023-02-28T03:52:31;-1.20;78.70
8910;DHT22;4490;49.072;8.804;2023-02-28T03:55:03;-1.20;78.60
8910;DHT22;4490;49.072;8.804;2023-02-28T04:00:54;-1.10;79.50
8910;DHT22;4490;49.072;8.804;2023-02-28T04:02:59;-1.10;79.20
8910;DHT22;4490;49.072;8.804;2023-02-28T04:05:24;-1.00;79.50
8910;DHT22;4490;49.072;8.804;2023-02-28T04:07:50;-1.00;79.30
8910;DHT22;4490;49.072;8.804;2023-02-28T04:10:17;-0.90;79.80
8910;DHT22;4490;49.072;8.804;2023-02-28T04:12:42;-0.90;79.70
8910;DHT22;4490;49.072;8.804;2023-02-28T04:15:09;-0.90;79.80
8910;DHT22;4490;49.072;8.804;2023-02-28T04:17:35;-0.80;79.90
8910;DHT22;4490;49.072;8.804;2023-02-28T04:20:01;-0.80;79.90
8910;DHT22;4490;49.072;8.804;2023-02-28T04:22:26;-0.80;79.80
8910;DHT22;4490;49.072;8.804;2023-02-28T04:24:52;-0.70;80.00
8910;DHT22;4490;49.072;8.804;2023-02-28T04:27:20;-0.70;80.00
8910;DHT22;4490;49.072;8.804;2023-02-28T04:29:45;-0.60;80.20
8910;DHT22;4490;49.072;8.804;2023-02-28T04:32:11;-0.60;80.20
8910;DHT22;4490;49.072;8.804;2023-02-28T04:34:37;-0.60;80.20
8910;DHT22;4490;49.072;8.804;2023-02-28T04:37:02;-0.60;80.00
8910;DHT22;4490;49.072;8.804;2023-02-28T04:39:28;-0.50;80.00
8910;DHT22;4490;49.072;8.804;2023-02-28T04:41:55;-0.50;80.00
8910;DHT22;4490;49.072;8.804;2023-02-28T04:44:21;-0.50;80.30
8910;DHT22;4490;49.072;8.804;2023-02-28T04:46:47;-0.50;80.10
8910;DHT22;4490;49.072;8.804;2023-02-28T04:49:13;-0.50;80.30
8910;DHT22;4490;49.072;8.804;2023-02-28T04:51:39;-0.40;80.20
8910;DHT22;4490;49.072;8.804;2023-02-28T04:54:05;-0.40;80.10
8910;DHT22;4490;49.072;8.804;2023-02-28T04:56:32;-0.40;80.30
8910;DHT22;4490;49.072;8.804;2023-02-28T04:58:57;-0.50;80.30
8910;DHT22;4490;49.072;8.804;2023-02-28T05:01:28;-0.40;80.80
8910;DHT22;4490;49.072;8.804;2023-02-28T05:03:56;-0.40;80.60
8910;DHT22;4490;49.072;8.804;2023-02-28T05:06:24;-0.40;80.60
8910;DHT22;4490;49.072;8.804;2023-02-28T05:08:50;-0.40;80.50
8910;DHT22;4490;49.072;8.804;2023-02-28T05:11:33;-0.40;80.50
8910;DHT22;4490;49.072;8.804;2023-02-28T05:14:05;-0.40;80.40
8910;DHT22;4490;49.072;8.804;2023-02-28T05:16:31;-0.30;80.80
8910;DHT22;4490;49.072;8.804;2023-02-28T05:18:57;-0.30;80.60
8910;DHT22;4490;49.072;8.804;2023-02-28T05:21:31;-0.30;80.50
8910;DHT22;4490;49.072;8.804;2023-02-28T05:23:59;-0.30;80.40
8910;DHT22;4490;49.072;8.804;2023-02-28T05:26:26;-0.30;80.40
8910;DHT22;4490;49.072;8.804;2023-02-28T05:28:52;-0.30;81.20
8910;DHT22;4490;49.072;8.804;2023-02-28T05:31:18;-0.30;80.70
8910;DHT22;4490;49.072;8.804;2023-02-28T05:33:43;-0.20;80.50
8910;DHT22;4490;49.072;8.804;2023-02-28T05:36:09;-0.20;80.60
8910;DHT22;4490;49.072;8.804;2023-02-28T05:38:35;-0.20;80.60
8910;DHT22;4490;49.072;8.804;2023-02-28T05:41:05;-0.20;80.70
8910;DHT22;4490;49.072;8.804;2023-02-28T05:43:30;-0.20;80.60
8910;DHT22;4490;49.072;8.804;2023-02-28T05:45:56;-0.20;80.60
8910;DHT22;4490;49.072;8.804;2023-02-28T05:48:23;-0.20;80.60
8910;DHT22;4490;49.072;8.804;2023-02-28T05:50:48;-0.20;80.70
8910;DHT22;4490;49.072;8.804;2023-02-28T05:53:14;-0.20;80.60
8910;DHT22;4490;49.072;8.804;2023-02-28T05:55:39;-0.10;80.70
8910;DHT22;4490;49.072;8.804;2023-02-28T05:58:06;-0.10;80.60
8910;DHT22;4490;49.072;8.804;2023-02-28T06:00:32;-0.10;81.10
8910;DHT22;4490;49.072;8.804;2023-02-28T06:02:57;-0.10;80.80
8910;DHT22;4490;49.072;8.804;2023-02-28T06:05:27;0.00;80.90
8910;DHT22;4490;49.072;8.804;2023-02-28T06:07:53;0.00;80.80
8910;DHT22;4490;49.072;8.804;2023-02-28T06:10:18;0.00;81.00
8910;DHT22;4490;49.072;8.804;2023-02-28T06:12:45;0.00;80.90
8910;DHT22;4490;49.072;8.804;2023-02-28T06:15:15;0.10;81.10
8910;DHT22;4490;49.072;8.804;2023-02-28T06:17:41;0.10;81.00
8910;DHT22;4490;49.072;8.804;2023-02-28T06:20:08;0.00;80.90
8910;DHT22;4490;49.072;8.804;2023-02-28T06:22:35;0.00;81.10
8910;DHT22;4490;49.072;8.804;2023-02-28T06:25:01;0.00;81.10
8910;DHT22;4490;49.072;8.804;2023-02-28T06:27:27;0.00;81.70
8910;DHT22;4490;49.072;8.804;2023-02-28T06:29:55;0.10;81.00
8910;DHT22;4490;49.072;8.804;2023-02-28T06:32:21;0.10;81.30
8910;DHT22;4490;49.072;8.804;2023-02-28T06:34:47;0.10;81.30
8910;DHT22;4490;49.072;8.804;2023-02-28T06:37:13;0.10;81.30
8910;DHT22;4490;49.072;8.804;2023-02-28T06:39:38;0.10;81.40
8910;DHT22;4490;49.072;8.804;2023-02-28T06:42:05;0.10;81.30
8910;DHT22;4490;49.072;8.804;2023-02-28T06:44:30;0.10;81.30
8910;DHT22;4490;49.072;8.804;2023-02-28T06:47:01;0.10;81.50
8910;DHT22;4490;49.072;8.804;2023-02-28T06:49:29;0.10;81.30
8910;DHT22;4490;49.072;8.804;2023-02-28T06:51:55;0.10;81.40
8910;DHT22;4490;49.072;8.804;2023-02-28T06:54:20;0.10;81.50
8910;DHT22;4490;49.072;8.804;2023-02-28T06:56:46;0.10;82.30
8910;DHT22;4490;49.072;8.804;2023-02-28T06:59:12;0.20;81.70
8910;DHT22;4490;49.072;8.804;2023-02-28T07:01:38;0.10;81.40
8910;DHT22;4490;49.072;8.804;2023-02-28T07:04:05;0.20;81.70
8910;DHT22;4490;49.072;8.804;2023-02-28T07:06:31;0.20;81.60
8910;DHT22;4490;49.072;8.804;2023-02-28T07:08:57;0.20;81.60
8910;DHT22;4490;49.072;8.804;2023-02-28T07:11:25;0.20;81.80
8910;DHT22;4490;49.072;8.804;2023-02-28T07:13:52;0.20;81.70
8910;DHT22;4490;49.072;8.804;2023-02-28T07:16:18;0.20;81.80
8910;DHT22;4490;49.072;8.804;2023-02-28T07:18:44;0.20;81.70
8910;DHT22;4490;49.072;8.804;2023-02-28T07:21:10;0.30;81.90
8910;DHT22;4490;49.072;8.804;2023-02-28T07:23:37;0.30;81.90
8910;DHT22;4490;49.072;8.804;2023-02-28T07:26:07;0.30;82.10
8910;DHT22;4490;49.072;8.804;2023-02-28T07:28:33;0.30;82.00
8910;DHT22;4490;49.072;8.804;2023-02-28T07:31:06;0.40;82.00
8910;DHT22;4490;49.072;8.804;2023-02-28T07:33:32;0.40;81.90
8910;DHT22;4490;49.072;8.804;2023-02-28T07:36:04;0.40;81.90
8910;DHT22;4490;49.072;8.804;2023-02-28T07:38:30;0.50;81.90
8910;DHT22;4490;49.072;8.804;2023-02-28T07:40:56;0.50;81.70
8910;DHT22;4490;49.072;8.804;2023-02-28T07:43:22;0.50;81.60
8910;DHT22;4490;49.072;8.804;2023-02-28T07:45:47;0.60;81.70
8910;DHT22;4490;49.072;8.804;2023-02-28T07:48:13;0.60;81.80
8910;DHT22;4490;49.072;8.804;2023-02-28T07:50:38;0.60;81.70
8910;DHT22;4490;49.072;8.804;2023-02-28T07:53:04;0.60;81.50
8910;DHT22;4490;49.072;8.804;2023-02-28T07:55:30;0.70;81.70
8910;DHT22;4490;49.072;8.804;2023-02-28T07:57:57;0.70;81.60
8910;DHT22;4490;49.072;8.804;2023-02-28T08:00:23;0.70;81.70
8910;DHT22;4490;49.072;8.804;2023-02-28T08:02:49;0.70;81.50
8910;DHT22;4490;49.072;8.804;2023-02-28T08:05:15;0.70;81.40
8910;DHT22;4490;49.072;8.804;2023-02-28T08:07:40;0.80;81.50
8910;DHT22;4490;49.072;8.804;2023-02-28T08:10:06;0.80;81.50
8910;DHT22;4490;49.072;8.804;2023-02-28T08:12:34;0.90;81.50
8910;DHT22;4490;49.072;8.804;2023-02-28T08:14:59;0.90;81.50
8910;DHT22;4490;49.072;8.804;2023-02-28T08:17:25;1.00;81.50
8910;DHT22;4490;49.072;8.804;2023-02-28T08:19:50;1.00;81.70
8910;DHT22;4490;49.072;8.804;2023-02-28T08:22:16;1.20;81.50
8910;DHT22;4490;49.072;8.804;2023-02-28T08:24:42;1.30;81.20
8910;DHT22;4490;49.072;8.804;2023-02-28T08:27:09;1.40;80.90
8910;DHT22;4490;49.072;8.804;2023-02-28T08:29:37;1.50;80.90
8910;DHT22;4490;49.072;8.804;2023-02-28T08:32:03;1.70;80.50
8910;DHT22;4490;49.072;8.804;2023-02-28T08:34:29;1.80;80.20
8910;DHT22;4490;49.072;8.804;2023-02-28T08:36:55;2.00;79.80
8910;DHT22;4490;49.072;8.804;2023-02-28T08:39:21;2.30;79.70
8910;DHT22;4490;49.072;8.804;2023-02-28T08:41:46;2.60;79.20
8910;DHT22;4490;49.072;8.804;2023-02-28T08:44:12;2.90;79.10
8910;DHT22;4490;49.072;8.804;2023-02-28T08:46:38;3.30;78.10
8910;DHT22;4490;49.072;8.804;2023-02-28T08:49:03;3.70;77.30
8910;DHT22;4490;49.072;8.804;2023-02-28T08:51:29;4.10;76.60
8910;DHT22;4490;49.072;8.804;2023-02-28T08:53:58;4.50;74.80
8910;DHT22;4490;49.072;8.804;2023-02-28T08:56:26;4.90;74.40
8910;DHT22;4490;49.072;8.804;2023-02-28T08:58:52;5.10;72.60
8910;DHT22;4490;49.072;8.804;2023-02-28T09:01:26;4.90;71.60
8910;DHT22;4490;49.072;8.804;2023-02-28T09:03:52;4.60;71.50
8910;DHT22;4490;49.072;8.804;2023-02-28T09:06:20;4.40;71.90
8910;DHT22;4490;49.072;8.804;2023-02-28T09:08:46;4.00;72.10
8910;DHT22;4490;49.072;8.804;2023-02-28T09:11:12;3.80;72.60
8910;DHT22;4490;49.072;8.804;2023-02-28T09:13:38;3.60;73.00
8910;DHT22;4490;49.072;8.804;2023-02-28T09:16:06;3.40;73.40
8910;DHT22;4490;49.072;8.804;2023-02-28T09:18:35;3.40;73.80
8910;DHT22;4490;49.072;8.804;2023-02-28T09:21:07;3.40;73.80
8910;DHT22;4490;49.072;8.804;2023-02-28T09:23:33;3.30;73.90
8910;DHT22;4490;49.072;8.804;2023-02-28T09:25:59;3.30;73.90
8910;DHT22;4490;49.072;8.804;2023-02-28T09:28:24;3.20;74.20
8910;DHT22;4490;49.072;8.804;2023-02-28T09:30:52;3.20;74.10
8910;DHT22;4490;49.072;8.804;2023-02-28T09:33:19;3.10;73.80
8910;DHT22;4490;49.072;8.804;2023-02-28T09:35:47;3.10;74.00
8910;DHT22;4490;49.072;8.804;2023-02-28T09:38:13;3.00;74.00
8910;DHT22;4490;49.072;8.804;2023-02-28T09:41:00;3.00;74.90
8910;DHT22;4490;49.072;8.804;2023-02-28T09:43:31;3.00;74.30
8910;DHT22;4490;49.072;8.804;2023-02-28T09:46:31;2.90;74.40
8910;DHT22;4490;49.072;8.804;2023-02-28T09:49:02;3.00;74.60
8910;DHT22;4490;49.072;8.804;2023-02-28T09:53:59;2.90;74.40
8910;DHT22;4490;49.072;8.804;2023-02-28T09:56:33;2.80;74.30
8910;DHT22;4490;49.072;8.804;2023-02-28T10:04:50;2.90;74.80
8910;DHT22;4490;49.072;8.804;2023-02-28T10:07:22;3.00;74.90
8910;DHT22;4490;49.072;8.804;2023-02-28T10:09:54;2.90;75.20
8910;DHT22;4490;49.072;8.804;2023-02-28T10:12:21;2.90;74.80
8910;DHT22;4490;49.072;8.804;2023-02-28T10:14:50;3.00;74.90
8910;DHT22;4490;49.072;8.804;2023-02-28T10:17:21;3.00;74.50
8910;DHT22;4490;49.072;8.804;2023-02-28T10:20:01;3.00;74.50
8910;DHT22;4490;49.072;8.804;2023-02-28T10:23:26;3.10;74.80
8910;DHT22;4490;49.072;8.804;2023-02-28T10:25:28;3.10;74.70
8910;DHT22;4490;49.072;8.804;2023-02-28T10:28:00;3.20;74.80
8910;DHT22;4490;49.072;8.804;2023-02-28T10:30:27;3.30;74.90
8910;DHT22;4490;49.072;8.804;2023-02-28T10:32:53;3.30;74.80
8910;DHT22;4490;49.072;8.804;2023-02-28T10:35:23;3.40;74.60
8910;DHT22;4490;49.072;8.804;2023-02-28T10:37:52;3.50;74.40
8910;DHT22;4490;49.072;8.804;2023-02-28T10:43:05;3.80;74.10
8910;DHT22;4490;49.072;8.804;2023-02-28T10:45:33;3.90;74.20
8910;DHT22;4490;49.072;8.804;2023-02-28T10:48:32;4.00;74.10
8910;DHT22;4490;49.072;8.804;2023-02-28T10:50:59;4.20;72.70
8910;DHT22;4490;49.072;8.804;2023-02-28T10:53:36;4.20;72.40
8910;DHT22;4490;49.072;8.804;2023-02-28T10:56:04;4.30;72.10
8910;DHT22;4490;49.072;8.804;2023-02-28T11:03:52;4.40;71.10
8910;DHT22;4490;49.072;8.804;2023-02-28T11:06:22;4.50;71.60
8910;DHT22;4490;49.072;8.804;2023-02-28T11:08:54;4.60;70.70
8910;DHT22;4490;49.072;8.804;2023-02-28T11:11:21;4.70;70.60
8910;DHT22;4490;49.072;8.804;2023-02-28T11:13:51;4.70;70.30
8910;DHT22;4490;49.072;8.804;2023-02-28T11:16:18;4.90;70.30
8910;DHT22;4490;49.072;8.804;2023-02-28T11:18:48;5.10;71.00
8910;DHT22;4490;49.072;8.804;2023-02-28T11:21:25;5.30;70.90
8910;DHT22;4490;49.072;8.804;2023-02-28T11:24:04;5.50;67.70
8910;DHT22;4490;49.072;8.804;2023-02-28T11:26:37;5.60;68.80
8910;DHT22;4490;49.072;8.804;2023-02-28T11:29:20;5.70;67.80
8910;DHT22;4490;49.072;8.804;2023-02-28T11:32:20;5.70;67.30
8910;DHT22;4490;49.072;8.804;2023-02-28T11:34:59;5.70;67.20
8910;DHT22;4490;49.072;8.804;2023-02-28T11:37:28;5.70;67.90
8910;DHT22;4490;49.072;8.804;2023-02-28T11:39:54;5.70;67.70
8910;DHT22;4490;49.072;8.804;2023-02-28T11:52:56;5.90;65.60
8910;DHT22;4490;49.072;8.804;2023-02-28T11:55:35;5.80;65.60
8910;DHT22;4490;49.072;8.804;2023-02-28T11:58:23;5.80;66.50
8910;DHT22;4490;49.072;8.804;2023-02-28T12:01:09;5.90;66.20
8910;DHT22;4490;49.072;8.804;2023-02-28T12:11:36;5.90;66.80
8910;DHT22;4490;49.072;8.804;2023-02-28T12:22:32;6.60;66.50
8910;DHT22;4490;49.072;8.804;2023-02-28T12:27:41;6.90;65.90
8910;DHT22;4490;49.072;8.804;2023-02-28T12:33:01;7.00;65.80
8910;DHT22;4490;49.072;8.804;2023-02-28T12:35:34;7.00;66.10
8910;DHT22;4490;49.072;8.804;2023-02-28T12:38:08;7.10;66.10
8910;DHT22;4490;49.072;8.804;2023-02-28T12:40:50;7.20;65.70
8910;DHT22;4490;49.072;8.804;2023-02-28T12:43:20;7.30;64.50
8910;DHT22;4490;49.072;8.804;2023-02-28T12:45:58;7.30;64.50
8910;DHT22;4490;49.072;8.804;2023-02-28T12:48:36;7.40;64.40
8910;DHT22;4490;49.072;8.804;2023-02-28T12:51:03;7.30;63.40
8910;DHT22;4490;49.072;8.804;2023-02-28T12:53:46;7.20;63.90
8910;DHT22;4490;49.072;8.804;2023-02-28T12:59:02;7.20;64.50
8910;DHT22;4490;49.072;8.804;2023-02-28T13:09:30;8.10;63.80
8910;DHT22;4490;49.072;8.804;2023-02-28T13:11:57;8.40;63.80
8910;DHT22;4490;49.072;8.804;2023-02-28T13:14:36;8.60;62.80
8910;DHT22;4490;49.072;8.804;2023-02-28T13:19:45;8.60;61.30
8910;DHT22;4490;49.072;8.804;2023-02-28T13:29:34;8.30;62.00
8910;DHT22;4490;49.072;8.804;2023-02-28T13:34:40;8.10;62.10
8910;DHT22;4490;49.072;8.804;2023-02-28T13:39:57;7.90;61.90
8910;DHT22;4490;49.072;8.804;2023-02-28T13:50:24;7.70;62.30
8910;DHT22;4490;49.072;8.804;2023-02-28T13:56:00;7.90;63.50
8910;DHT22;4490;49.072;8.804;2023-02-28T13:58:54;8.20;63.30
8910;DHT22;4490;49.072;8.804;2023-02-28T14:04:51;8.50;61.80
8910;DHT22;4490;49.072;8.804;2023-02-28T14:07:23;8.70;62.60
8910;DHT22;4490;49.072;8.804;2023-02-28T14:10:01;8.80;62.40
8910;DHT22;4490;49.072;8.804;2023-02-28T14:13:00;8.80;61.00
8910;DHT22;4490;49.072;8.804;2023-02-28T14:18:37;9.00;61.70
8910;DHT22;4490;49.072;8.804;2023-02-28T14:23:50;9.30;60.90
8910;DHT22;4490;49.072;8.804;2023-02-28T14:29:35;9.70;61.30
8910;DHT22;4490;49.072;8.804;2023-02-28T14:34:55;9.90;59.70
8910;DHT22;4490;49.072;8.804;2023-02-28T14:37:28;10.10;58.30
8910;DHT22;4490;49.072;8.804;2023-02-28T14:39:55;10.20;58.40
8910;DHT22;4490;49.072;8.804;2023-02-28T14:42:32;10.10;57.80
8910;DHT22;4490;49.072;8.804;2023-02-28T14:44:58;9.90;58.50
8910;DHT22;4490;49.072;8.804;2023-02-28T14:47:32;9.70;59.20
8910;DHT22;4490;49.072;8.804;2023-02-28T14:49:59;9.80;59.20
8910;DHT22;4490;49.072;8.804;2023-02-28T14:52:28;9.80;59.00
8910;DHT22;4490;49.072;8.804;2023-02-28T14:54:58;9.90;58.90
8910;DHT22;4490;49.072;8.804;2023-02-28T14:57:25;10.00;58.10
8910;DHT22;4490;49.072;8.804;2023-02-28T15:02:41;10.10;57.70
8910;DHT22;4490;49.072;8.804;2023-02-28T15:07:35;10.10;57.20
8910;DHT22;4490;49.072;8.804;2023-02-28T15:10:24;10.10;57.20
8910;DHT22;4490;49.072;8.804;2023-02-28T15:15:26;10.00;57.10
8910;DHT22;4490;49.072;8.804;2023-02-28T15:17:55;10.00;56.70
8910;DHT22;4490;49.072;8.804;2023-02-28T15:20:22;10.00;56.80
8910;DHT22;4490;49.072;8.804;2023-02-28T15:22:50;9.80;57.60
8910;DHT22;4490;49.072;8.804;2023-02-28T15:25:20;9.70;57.70
8910;DHT22;4490;49.072;8.804;2023-02-28T15:27:49;9.60;57.60
8910;DHT22;4490;49.072;8.804;2023-02-28T15:30:22;9.40;57.50
8910;DHT22;4490;49.072;8.804;2023-02-28T15:33:26;9.20;58.00
8910;DHT22;4490;49.072;8.804;2023-02-28T15:36:14;9.20;58.10
8910;DHT22;4490;49.072;8.804;2023-02-28T15:38:40;9.00;58.20
8910;DHT22;4490;49.072;8.804;2023-02-28T15:41:28;8.70;58.20
8910;DHT22;4490;49.072;8.804;2023-02-28T15:44:14;8.60;58.60
8910;DHT22;4490;49.072;8.804;2023-02-28T15:47:01;8.40;58.50
8910;DHT22;4490;49.072;8.804;2023-02-28T15:49:29;8.20;58.90
8910;DHT22;4490;49.072;8.804;2023-02-28T15:51:59;8.00;59.10
8910;DHT22;4490;49.072;8.804;2023-02-28T15:54:32;7.80;59.20
8910;DHT22;4490;49.072;8.804;2023-02-28T15:57:04;7.70;59.50
8910;DHT22;4490;49.072;8.804;2023-02-28T15:59:34;7.60;59.90
8910;DHT22;4490;49.072;8.804;2023-02-28T16:04:35;7.40;60.50
8910;DHT22;4490;49.072;8.804;2023-02-28T16:07:04;7.30;60.40
8910;DHT22;4490;49.072;8.804;2023-02-28T16:09:30;7.20;60.70
8910;DHT22;4490;49.072;8.804;2023-02-28T16:12:00;7.10;60.70
8910;DHT22;4490;49.072;8.804;2023-02-28T16:14:30;7.10;61.10
8910;DHT22;4490;49.072;8.804;2023-02-28T16:17:07;7.00;61.30
8910;DHT22;4490;49.072;8.804;2023-02-28T16:19:36;7.00;61.50
8910;DHT22;4490;49.072;8.804;2023-02-28T16:22:02;6.90;61.60
8910;DHT22;4490;49.072;8.804;2023-02-28T16:24:27;6.80;61.60
8910;DHT22;4490;49.072;8.804;2023-02-28T16:26:55;6.70;62.00
8910;DHT22;4490;49.072;8.804;2023-02-28T16:29:28;6.60;62.00
8910;DHT22;4490;49.072;8.804;2023-02-28T16:31:55;6.60;62.10
8910;DHT22;4490;49.072;8.804;2023-02-28T16:34:21;6.40;62.20
8910;DHT22;4490;49.072;8.804;2023-02-28T16:36:48;6.30;62.40
8910;DHT22;4490;49.072;8.804;2023-02-28T16:39:14;6.30;62.60
8910;DHT22;4490;49.072;8.804;2023-02-28T16:41:43;6.20;62.90
8910;DHT22;4490;49.072;8.804;2023-02-28T16:44:14;6.20;63.10
8910;DHT22;4490;49.072;8.804;2023-02-28T16:46:45;6.10;63.10
8910;DHT22;4490;49.072;8.804;2023-02-28T16:49:11;6.00;63.30
8910;DHT22;4490;49.072;8.804;2023-02-28T16:51:38;6.00;63.30
8910;DHT22;4490;49.072;8.804;2023-02-28T16:54:03;5.90;63.30
8910;DHT22;4490;49.072;8.804;2023-02-28T16:56:29;5.80;63.60
8910;DHT22;4490;49.072;8.804;2023-02-28T16:58:59;5.70;63.60
8910;DHT22;4490;49.072;8.804;2023-02-28T17:01:25;5.70;63.60
8910;DHT22;4490;49.072;8.804;2023-02-28T17:03:52;5.60;63.90
8910;DHT22;4490;49.072;8.804;2023-02-28T17:06:26;5.50;64.20
8910;DHT22;4490;49.072;8.804;2023-02-28T17:08:57;5.40;64.20
8910;DHT22;4490;49.072;8.804;2023-02-28T17:11:23;5.30;64.40
8910;DHT22;4490;49.072;8.804;2023-02-28T17:13:50;5.30;64.60
8910;DHT22;4490;49.072;8.804;2023-02-28T17:16:29;5.20;64.80
8910;DHT22;4490;49.072;8.804;2023-02-28T17:18:59;5.20;64.90
8910;DHT22;4490;49.072;8.804;2023-02-28T17:21:25;5.10;65.00
8910;DHT22;4490;49.072;8.804;2023-02-28T17:23:51;5.00;65.00
8910;DHT22;4490;49.072;8.804;2023-02-28T17:26:18;4.90;65.20
8910;DHT22;4490;49.072;8.804;2023-02-28T17:28:50;4.80;65.60
8910;DHT22;4490;49.072;8.804;2023-02-28T17:31:16;4.70;65.70
8910;DHT22;4490;49.072;8.804;2023-02-28T17:33:42;4.60;65.80
8910;DHT22;4490;49.072;8.804;2023-02-28T17:36:13;4.50;66.00
8910;DHT22;4490;49.072;8.804;2023-02-28T17:38:40;4.50;66.00
8910;DHT22;4490;49.072;8.804;2023-02-28T17:41:06;4.50;66.10
8910;DHT22;4490;49.072;8.804;2023-02-28T17:43:33;4.40;66.30
8910;DHT22;4490;49.072;8.804;2023-02-28T17:45:58;4.30;66.30
8910;DHT22;4490;49.072;8.804;2023-02-28T17:48:25;4.30;66.40
8910;DHT22;4490;49.072;8.804;2023-02-28T17:50:51;4.20;66.50
8910;DHT22;4490;49.072;8.804;2023-02-28T17:53:17;4.20;66.70
8910;DHT22;4490;49.072;8.804;2023-02-28T17:55:43;4.10;66.80
8910;DHT22;4490;49.072;8.804;2023-02-28T17:58:10;4.00;67.10
8910;DHT22;4490;49.072;8.804;2023-02-28T18:00:38;3.90;67.10
8910;DHT22;4490;49.072;8.804;2023-02-28T18:03:04;3.90;67.40
8910;DHT22;4490;49.072;8.804;2023-02-28T18:05:29;3.80;67.60
8910;DHT22;4490;49.072;8.804;2023-02-28T18:07:56;3.80;67.60
8910;DHT22;4490;49.072;8.804;2023-02-28T18:10:22;3.70;67.80
8910;DHT22;4490;49.072;8.804;2023-02-28T18:12:49;3.60;68.20
8910;DHT22;4490;49.072;8.804;2023-02-28T18:15:17;3.60;68.60
8910;DHT22;4490;49.072;8.804;2023-02-28T18:17:43;3.50;68.80
8910;DHT22;4490;49.072;8.804;2023-02-28T18:20:10;3.40;68.90
8910;DHT22;4490;49.072;8.804;2023-02-28T18:22:37;3.40;69.10
8910;DHT22;4490;49.072;8.804;2023-02-28T18:25:08;3.20;69.10
8910;DHT22;4490;49.072;8.804;2023-02-28T18:27:34;3.20;69.30
8910;DHT22;4490;49.072;8.804;2023-02-28T18:30:01;3.00;69.20
8910;DHT22;4490;49.072;8.804;2023-02-28T18:32:28;2.90;69.40
8910;DHT22;4490;49.072;8.804;2023-02-28T18:34:54;2.80;69.40
8910;DHT22;4490;49.072;8.804;2023-02-28T18:37:19;2.80;69.70
8910;DHT22;4490;49.072;8.804;2023-02-28T18:39:45;2.70;69.80
8910;DHT22;4490;49.072;8.804;2023-02-28T18:42:11;2.60;69.90
8910;DHT22;4490;49.072;8.804;2023-02-28T18:44:37;2.50;70.30
8910;DHT22;4490;49.072;8.804;2023-02-28T18:47:02;2.50;70.40
8910;DHT22;4490;49.072;8.804;2023-02-28T18:49:30;2.40;70.40
8910;DHT22;4490;49.072;8.804;2023-02-28T18:51:58;2.30;70.30